sensor_id;sensor_type;location;lat;lon;timestamp;P1;durP1;ratioP1;P2;durP2;ratioP2
72261;SDS011;60173;52.112;8.648;2022-11-15T00:02:06;10.38;;;7.80;;
72261;SDS011;60173;52.112;8.648;2022-11-15T00:04:32;11.52;;;8.63;;
72261;SDS011;60173;52.112;8.648;2022-11-15T00:06:59;13.95;;;9.00;;
72261;SDS011;60173;52.112;8.648;2022-11-15T00:09:25;14.00;;;8.88;;
72261;SDS011;60173;52.112;8.648;2022-11-15T00:11:51;14.85;;;9.60;;
72261;SDS011;60173;52.112;8.648;2022-11-15T00:14:18;13.38;;;8.57;;
72261;SDS011;60173;52.112;8.648;2022-11-15T00:16:44;12.77;;;8.32;;
72261;SDS011;60173;52.112;8.648;2022-11-15T00:19:11;11.38;;;8.25;;
72261;SDS011;60173;52.112;8.648;2022-11-15T00:21:37;13.23;;;8.40;;
72261;SDS011;60173;52.112;8.648;2022-11-15T00:24:03;12.88;;;8.73;;
72261;SDS011;60173;52.112;8.648;2022-11-15T00:26:30;13.10;;;8.35;;
72261;SDS011;60173;52.112;8.648;2022-11-15T00:28:56;11.05;;;8.30;;
72261;SDS011;60173;52.112;8.648;2022-11-15T00:31:22;12.93;;;8.35;;
72261;SDS011;60173;52.112;8.648;2022-11-15T00:33:49;10.18;;;7.78;;
72261;SDS011;60173;52.112;8.648;2022-11-15T00:36:15;12.40;;;8.23;;
72261;SDS011;60173;52.112;8.648;2022-11-15T00:38:41;13.30;;;8.35;;
72261;SDS011;60173;52.112;8.648;2022-11-15T00:41:08;12.30;;;8.27;;
72261;SDS011;60173;52.112;8.648;2022-11-15T00:43:35;11.38;;;7.63;;
72261;SDS011;60173;52.112;8.648;2022-11-15T00:46:01;9.88;;;7.68;;
72261;SDS011;60173;52.112;8.648;2022-11-15T00:48:28;11.02;;;7.13;;
72261;SDS011;60173;52.112;8.648;2022-11-15T00:50:55;12.80;;;7.95;;
72261;SDS011;60173;52.112;8.648;2022-11-15T00:53:21;11.70;;;8.00;;
72261;SDS011;60173;52.112;8.648;2022-11-15T00:55:48;11.60;;;7.88;;
72261;SDS011;60173;52.112;8.648;2022-11-15T00:58:14;11.35;;;8.10;;
72261;SDS011;60173;52.112;8.648;2022-11-15T01:00:40;11.45;;;7.25;;
72261;SDS011;60173;52.112;8.648;2022-11-15T01:03:07;12.30;;;8.77;;
72261;SDS011;60173;52.112;8.648;2022-11-15T01:05:33;13.20;;;8.15;;
72261;SDS011;60173;52.112;8.648;2022-11-15T01:07:59;11.50;;;7.63;;
72261;SDS011;60173;52.112;8.648;2022-11-15T01:10:26;10.88;;;8.20;;
72261;SDS011;60173;52.112;8.648;2022-11-15T01:12:52;14.00;;;8.15;;
72261;SDS011;60173;52.112;8.648;2022-11-15T01:15:18;12.73;;;8.02;;
72261;SDS011;60173;52.112;8.648;2022-11-15T01:17:45;12.90;;;8.50;;
72261;SDS011;60173;52.112;8.648;2022-11-15T01:20:11;15.48;;;8.75;;
72261;SDS011;60173;52.112;8.648;2022-11-15T01:22:38;10.93;;;8.23;;
72261;SDS011;60173;52.112;8.648;2022-11-15T01:25:04;12.23;;;8.73;;
72261;SDS011;60173;52.112;8.648;2022-11-15T01:27:30;12.40;;;8.63;;
72261;SDS011;60173;52.112;8.648;2022-11-15T01:29:57;12.45;;;8.35;;
72261;SDS011;60173;52.112;8.648;2022-11-15T01:32:23;19.13;;;8.90;;
72261;SDS011;60173;52.112;8.648;2022-11-15T01:34:49;14.25;;;8.55;;
72261;SDS011;60173;52.112;8.648;2022-11-15T01:37:16;12.20;;;8.88;;
72261;SDS011;60173;52.112;8.648;2022-11-15T01:39:42;17.42;;;8.88;;
72261;SDS011;60173;52.112;8.648;2022-11-15T01:42:11;15.10;;;8.65;;
72261;SDS011;60173;52.112;8.648;2022-11-15T01:44:40;14.35;;;8.63;;
72261;SDS011;60173;52.112;8.648;2022-11-15T01:47:11;14.02;;;8.70;;
72261;SDS011;60173;52.112;8.648;2022-11-15T01:49:45;14.10;;;8.70;;
72261;SDS011;60173;52.112;8.648;2022-11-15T01:52:22;13.75;;;8.55;;
72261;SDS011;60173;52.112;8.648;2022-11-15T01:54:53;15.18;;;8.05;;
72261;SDS011;60173;52.112;8.648;2022-11-15T01:57:25;13.65;;;8.77;;
72261;SDS011;60173;52.112;8.648;2022-11-15T01:59:51;14.57;;;8.50;;
72261;SDS011;60173;52.112;8.648;2022-11-15T02:02:17;15.40;;;8.88;;
72261;SDS011;60173;52.112;8.648;2022-11-15T02:04:47;13.93;;;8.93;;
72261;SDS011;60173;52.112;8.648;2022-11-15T02:07:17;14.25;;;8.70;;
72261;SDS011;60173;52.112;8.648;2022-11-15T02:09:46;16.02;;;8.65;;
72261;SDS011;60173;52.112;8.648;2022-11-15T02:12:13;12.27;;;8.85;;
72261;SDS011;60173;52.112;8.648;2022-11-15T02:14:45;13.48;;;8.75;;
72261;SDS011;60173;52.112;8.648;2022-11-15T02:20:08;13.38;;;8.55;;
72261;SDS011;60173;52.112;8.648;2022-11-15T02:23:12;15.43;;;9.40;;
72261;SDS011;60173;52.112;8.648;2022-11-15T02:28:42;14.07;;;9.88;;
72261;SDS011;60173;52.112;8.648;2022-11-15T02:34:05;20.77;;;11.77;;
72261;SDS011;60173;52.112;8.648;2022-11-15T02:42:27;14.88;;;10.90;;
72261;SDS011;60173;52.112;8.648;2022-11-15T02:44:58;15.88;;;10.68;;
72261;SDS011;60173;52.112;8.648;2022-11-15T02:47:31;18.27;;;10.88;;
72261;SDS011;60173;52.112;8.648;2022-11-15T02:50:06;17.65;;;11.82;;
72261;SDS011;60173;52.112;8.648;2022-11-15T02:52:35;19.65;;;12.10;;
72261;SDS011;60173;52.112;8.648;2022-11-15T02:55:01;17.42;;;12.07;;
72261;SDS011;60173;52.112;8.648;2022-11-15T03:03:20;21.73;;;12.73;;
72261;SDS011;60173;52.112;8.648;2022-11-15T03:05:35;21.98;;;12.82;;
72261;SDS011;60173;52.112;8.648;2022-11-15T03:11:10;21.95;;;14.27;;
72261;SDS011;60173;52.112;8.648;2022-11-15T03:13:42;27.02;;;14.93;;
72261;SDS011;60173;52.112;8.648;2022-11-15T03:22:00;20.35;;;13.63;;
72261;SDS011;60173;52.112;8.648;2022-11-15T03:24:33;25.08;;;14.60;;
72261;SDS011;60173;52.112;8.648;2022-11-15T03:27:05;26.33;;;14.82;;
72261;SDS011;60173;52.112;8.648;2022-11-15T03:29:35;22.73;;;15.40;;
72261;SDS011;60173;52.112;8.648;2022-11-15T03:32:07;23.50;;;14.10;;
72261;SDS011;60173;52.112;8.648;2022-11-15T03:34:41;21.20;;;13.70;;
72261;SDS011;60173;52.112;8.648;2022-11-15T03:37:31;22.58;;;14.55;;
72261;SDS011;60173;52.112;8.648;2022-11-15T03:40:02;21.27;;;13.27;;
72261;SDS011;60173;52.112;8.648;2022-11-15T03:42:31;22.48;;;14.45;;
72261;SDS011;60173;52.112;8.648;2022-11-15T03:45:08;28.33;;;14.48;;
72261;SDS011;60173;52.112;8.648;2022-11-15T03:47:43;26.08;;;15.43;;
72261;SDS011;60173;52.112;8.648;2022-11-15T03:50:15;24.17;;;15.10;;
72261;SDS011;60173;52.112;8.648;2022-11-15T03:52:44;22.70;;;15.38;;
72261;SDS011;60173;52.112;8.648;2022-11-15T03:55:13;25.98;;;17.35;;
72261;SDS011;60173;52.112;8.648;2022-11-15T03:57:43;22.08;;;15.00;;
72261;SDS011;60173;52.112;8.648;2022-11-15T04:00:09;23.25;;;15.35;;
72261;SDS011;60173;52.112;8.648;2022-11-15T04:02:37;26.42;;;17.92;;
72261;SDS011;60173;52.112;8.648;2022-11-15T04:05:03;25.23;;;16.48;;
72261;SDS011;60173;52.112;8.648;2022-11-15T04:07:30;23.45;;;16.80;;
72261;SDS011;60173;52.112;8.648;2022-11-15T04:09:56;25.70;;;16.25;;
72261;SDS011;60173;52.112;8.648;2022-11-15T04:12:23;24.80;;;15.82;;
72261;SDS011;60173;52.112;8.648;2022-11-15T04:14:49;20.73;;;14.63;;
72261;SDS011;60173;52.112;8.648;2022-11-15T04:17:16;19.52;;;14.55;;
72261;SDS011;60173;52.112;8.648;2022-11-15T04:19:42;22.35;;;15.27;;
72261;SDS011;60173;52.112;8.648;2022-11-15T04:22:08;23.52;;;16.50;;
72261;SDS011;60173;52.112;8.648;2022-11-15T04:24:34;24.45;;;16.02;;
72261;SDS011;60173;52.112;8.648;2022-11-15T04:27:01;28.15;;;15.85;;
72261;SDS011;60173;52.112;8.648;2022-11-15T04:29:28;23.77;;;15.70;;
72261;SDS011;60173;52.112;8.648;2022-11-15T04:31:55;24.83;;;17.27;;
72261;SDS011;60173;52.112;8.648;2022-11-15T04:34:21;23.80;;;16.05;;
72261;SDS011;60173;52.112;8.648;2022-11-15T04:36:48;24.23;;;16.48;;
72261;SDS011;60173;52.112;8.648;2022-11-15T04:39:14;27.15;;;16.13;;
72261;SDS011;60173;52.112;8.648;2022-11-15T04:41:40;23.20;;;15.75;;
72261;SDS011;60173;52.112;8.648;2022-11-15T04:44:07;26.10;;;15.60;;
72261;SDS011;60173;52.112;8.648;2022-11-15T04:46:33;24.63;;;14.45;;
72261;SDS011;60173;52.112;8.648;2022-11-15T04:48:59;26.38;;;16.10;;
72261;SDS011;60173;52.112;8.648;2022-11-15T04:51:26;23.48;;;15.13;;
72261;SDS011;60173;52.112;8.648;2022-11-15T04:53:52;25.83;;;15.35;;
72261;SDS011;60173;52.112;8.648;2022-11-15T04:56:19;25.65;;;15.00;;
72261;SDS011;60173;52.112;8.648;2022-11-15T04:58:45;23.55;;;14.60;;
72261;SDS011;60173;52.112;8.648;2022-11-15T05:01:15;21.85;;;14.30;;
72261;SDS011;60173;52.112;8.648;2022-11-15T05:03:42;22.38;;;14.43;;
72261;SDS011;60173;52.112;8.648;2022-11-15T05:06:08;20.13;;;13.98;;
72261;SDS011;60173;52.112;8.648;2022-11-15T05:08:35;23.77;;;14.05;;
72261;SDS011;60173;52.112;8.648;2022-11-15T05:11:01;24.38;;;13.75;;
72261;SDS011;60173;52.112;8.648;2022-11-15T05:13:27;21.65;;;13.63;;
72261;SDS011;60173;52.112;8.648;2022-11-15T05:15:54;19.45;;;13.50;;
72261;SDS011;60173;52.112;8.648;2022-11-15T05:18:20;18.92;;;13.23;;
72261;SDS011;60173;52.112;8.648;2022-11-15T05:20:49;20.30;;;13.40;;
72261;SDS011;60173;52.112;8.648;2022-11-15T05:23:15;19.17;;;13.57;;
72261;SDS011;60173;52.112;8.648;2022-11-15T05:25:41;19.25;;;12.13;;
72261;SDS011;60173;52.112;8.648;2022-11-15T05:28:08;19.70;;;12.60;;
72261;SDS011;60173;52.112;8.648;2022-11-15T05:30:34;19.85;;;12.75;;
72261;SDS011;60173;52.112;8.648;2022-11-15T05:33:01;19.23;;;12.52;;
72261;SDS011;60173;52.112;8.648;2022-11-15T05:35:40;22.50;;;11.90;;
72261;SDS011;60173;52.112;8.648;2022-11-15T05:38:11;24.83;;;12.75;;
72261;SDS011;60173;52.112;8.648;2022-11-15T05:40:37;19.63;;;12.15;;
72261;SDS011;60173;52.112;8.648;2022-11-15T05:43:04;18.60;;;12.10;;
72261;SDS011;60173;52.112;8.648;2022-11-15T05:45:31;18.35;;;12.18;;
72261;SDS011;60173;52.112;8.648;2022-11-15T05:48:00;16.83;;;11.60;;
72261;SDS011;60173;52.112;8.648;2022-11-15T05:50:29;17.58;;;11.40;;
72261;SDS011;60173;52.112;8.648;2022-11-15T05:52:56;19.38;;;12.15;;
72261;SDS011;60173;52.112;8.648;2022-11-15T05:55:30;17.52;;;12.05;;
72261;SDS011;60173;52.112;8.648;2022-11-15T05:57:57;20.02;;;11.68;;
72261;SDS011;60173;52.112;8.648;2022-11-15T06:00:24;22.10;;;12.55;;
72261;SDS011;60173;52.112;8.648;2022-11-15T06:02:51;22.83;;;12.07;;
72261;SDS011;60173;52.112;8.648;2022-11-15T06:05:17;22.10;;;13.13;;
72261;SDS011;60173;52.112;8.648;2022-11-15T06:07:43;19.30;;;12.25;;
72261;SDS011;60173;52.112;8.648;2022-11-15T06:10:10;24.55;;;12.50;;
72261;SDS011;60173;52.112;8.648;2022-11-15T06:12:36;20.48;;;13.13;;
72261;SDS011;60173;52.112;8.648;2022-11-15T06:15:03;19.80;;;13.52;;
72261;SDS011;60173;52.112;8.648;2022-11-15T06:17:29;19.85;;;13.02;;
72261;SDS011;60173;52.112;8.648;2022-11-15T06:19:56;21.65;;;12.82;;
72261;SDS011;60173;52.112;8.648;2022-11-15T06:22:22;17.38;;;12.13;;
72261;SDS011;60173;52.112;8.648;2022-11-15T06:24:48;18.35;;;11.30;;
72261;SDS011;60173;52.112;8.648;2022-11-15T06:27:15;18.27;;;11.88;;
72261;SDS011;60173;52.112;8.648;2022-11-15T06:29:41;17.27;;;11.63;;
72261;SDS011;60173;52.112;8.648;2022-11-15T06:32:08;20.92;;;12.55;;
72261;SDS011;60173;52.112;8.648;2022-11-15T06:34:34;19.73;;;12.90;;
72261;SDS011;60173;52.112;8.648;2022-11-15T06:37:00;19.30;;;12.02;;
72261;SDS011;60173;52.112;8.648;2022-11-15T06:39:27;19.90;;;13.30;;
72261;SDS011;60173;52.112;8.648;2022-11-15T06:41:53;18.38;;;12.05;;
72261;SDS011;60173;52.112;8.648;2022-11-15T06:44:19;17.67;;;12.50;;
72261;SDS011;60173;52.112;8.648;2022-11-15T06:46:46;17.88;;;11.85;;
72261;SDS011;60173;52.112;8.648;2022-11-15T06:49:12;17.27;;;11.68;;
72261;SDS011;60173;52.112;8.648;2022-11-15T06:51:38;18.35;;;11.30;;
72261;SDS011;60173;52.112;8.648;2022-11-15T06:54:05;14.88;;;11.48;;
72261;SDS011;60173;52.112;8.648;2022-11-15T06:56:31;16.02;;;10.38;;
72261;SDS011;60173;52.112;8.648;2022-11-15T06:58:59;15.35;;;10.95;;
72261;SDS011;60173;52.112;8.648;2022-11-15T07:01:26;15.48;;;10.43;;
72261;SDS011;60173;52.112;8.648;2022-11-15T07:03:52;14.07;;;10.23;;
72261;SDS011;60173;52.112;8.648;2022-11-15T07:06:18;15.52;;;9.98;;
72261;SDS011;60173;52.112;8.648;2022-11-15T07:08:45;13.50;;;9.32;;
72261;SDS011;60173;52.112;8.648;2022-11-15T07:11:11;16.95;;;10.10;;
72261;SDS011;60173;52.112;8.648;2022-11-15T07:13:37;15.45;;;10.27;;
72261;SDS011;60173;52.112;8.648;2022-11-15T07:16:04;16.05;;;10.07;;
72261;SDS011;60173;52.112;8.648;2022-11-15T07:18:35;13.02;;;9.15;;
72261;SDS011;60173;52.112;8.648;2022-11-15T07:21:04;12.43;;;9.00;;
72261;SDS011;60173;52.112;8.648;2022-11-15T07:23:31;14.73;;;9.30;;
72261;SDS011;60173;52.112;8.648;2022-11-15T07:25:59;13.80;;;9.30;;
72261;SDS011;60173;52.112;8.648;2022-11-15T07:28:26;12.15;;;8.82;;
72261;SDS011;60173;52.112;8.648;2022-11-15T07:30:53;11.93;;;8.27;;
72261;SDS011;60173;52.112;8.648;2022-11-15T07:33:19;12.75;;;8.93;;
72261;SDS011;60173;52.112;8.648;2022-11-15T07:35:45;13.10;;;8.65;;
72261;SDS011;60173;52.112;8.648;2022-11-15T07:38:12;13.52;;;8.57;;
72261;SDS011;60173;52.112;8.648;2022-11-15T07:40:38;13.25;;;8.00;;
72261;SDS011;60173;52.112;8.648;2022-11-15T07:43:06;11.45;;;7.78;;
72261;SDS011;60173;52.112;8.648;2022-11-15T07:45:33;10.52;;;7.20;;
72261;SDS011;60173;52.112;8.648;2022-11-15T07:48:00;14.05;;;7.82;;
72261;SDS011;60173;52.112;8.648;2022-11-15T07:50:26;10.23;;;7.07;;
72261;SDS011;60173;52.112;8.648;2022-11-15T07:52:57;10.73;;;7.57;;
72261;SDS011;60173;52.112;8.648;2022-11-15T07:55:25;9.75;;;7.20;;
72261;SDS011;60173;52.112;8.648;2022-11-15T07:57:53;10.38;;;6.93;;
72261;SDS011;60173;52.112;8.648;2022-11-15T08:00:33;8.68;;;7.00;;
72261;SDS011;60173;52.112;8.648;2022-11-15T08:03:09;11.15;;;7.15;;
72261;SDS011;60173;52.112;8.648;2022-11-15T08:05:37;11.73;;;7.35;;
72261;SDS011;60173;52.112;8.648;2022-11-15T08:08:05;9.18;;;7.03;;
72261;SDS011;60173;52.112;8.648;2022-11-15T08:10:32;10.02;;;6.43;;
72261;SDS011;60173;52.112;8.648;2022-11-15T08:13:09;11.00;;;7.50;;
72261;SDS011;60173;52.112;8.648;2022-11-15T08:15:37;9.82;;;6.80;;
72261;SDS011;60173;52.112;8.648;2022-11-15T08:18:05;9.23;;;5.95;;
72261;SDS011;60173;52.112;8.648;2022-11-15T08:20:32;8.82;;;6.10;;
72261;SDS011;60173;52.112;8.648;2022-11-15T08:22:59;10.68;;;6.20;;
72261;SDS011;60173;52.112;8.648;2022-11-15T08:25:28;9.90;;;5.65;;
72261;SDS011;60173;52.112;8.648;2022-11-15T08:27:56;8.02;;;6.05;;
72261;SDS011;60173;52.112;8.648;2022-11-15T08:30:24;9.25;;;5.93;;
72261;SDS011;60173;52.112;8.648;2022-11-15T08:32:51;8.60;;;5.70;;
72261;SDS011;60173;52.112;8.648;2022-11-15T08:35:19;9.98;;;6.30;;
72261;SDS011;60173;52.112;8.648;2022-11-15T08:37:53;10.88;;;6.15;;
72261;SDS011;60173;52.112;8.648;2022-11-15T08:40:20;9.40;;;6.32;;
72261;SDS011;60173;52.112;8.648;2022-11-15T08:42:47;10.00;;;5.75;;
72261;SDS011;60173;52.112;8.648;2022-11-15T08:45:13;10.68;;;6.18;;
72261;SDS011;60173;52.112;8.648;2022-11-15T08:47:40;10.48;;;5.53;;
72261;SDS011;60173;52.112;8.648;2022-11-15T08:50:07;7.13;;;4.95;;
72261;SDS011;60173;52.112;8.648;2022-11-15T08:52:33;6.80;;;4.30;;
72261;SDS011;60173;52.112;8.648;2022-11-15T08:55:00;6.25;;;4.10;;
72261;SDS011;60173;52.112;8.648;2022-11-15T08:57:28;6.90;;;3.65;;
72261;SDS011;60173;52.112;8.648;2022-11-15T08:59:55;7.00;;;3.53;;
72261;SDS011;60173;52.112;8.648;2022-11-15T09:02:22;5.75;;;3.50;;
72261;SDS011;60173;52.112;8.648;2022-11-15T09:04:48;4.82;;;2.95;;
72261;SDS011;60173;52.112;8.648;2022-11-15T09:07:14;6.82;;;3.38;;
72261;SDS011;60173;52.112;8.648;2022-11-15T09:09:41;4.80;;;3.03;;
72261;SDS011;60173;52.112;8.648;2022-11-15T09:12:07;3.20;;;2.75;;
72261;SDS011;60173;52.112;8.648;2022-11-15T09:14:34;5.20;;;2.90;;
72261;SDS011;60173;52.112;8.648;2022-11-15T09:17:00;4.68;;;2.88;;
72261;SDS011;60173;52.112;8.648;2022-11-15T09:19:27;6.32;;;3.10;;
72261;SDS011;60173;52.112;8.648;2022-11-15T09:21:53;3.97;;;2.60;;
72261;SDS011;60173;52.112;8.648;2022-11-15T09:24:20;5.97;;;2.80;;
72261;SDS011;60173;52.112;8.648;2022-11-15T09:26:46;4.85;;;2.55;;
72261;SDS011;60173;52.112;8.648;2022-11-15T09:29:16;5.10;;;2.53;;
72261;SDS011;60173;52.112;8.648;2022-11-15T09:31:42;2.88;;;2.40;;
72261;SDS011;60173;52.112;8.648;2022-11-15T09:34:09;5.60;;;2.30;;
72261;SDS011;60173;52.112;8.648;2022-11-15T09:36:35;5.93;;;2.78;;
72261;SDS011;60173;52.112;8.648;2022-11-15T09:39:02;6.18;;;2.80;;
72261;SDS011;60173;52.112;8.648;2022-11-15T09:49:17;4.03;;;2.28;;
72261;SDS011;60173;52.112;8.648;2022-11-15T09:51:45;3.67;;;2.17;;
72261;SDS011;60173;52.112;8.648;2022-11-15T09:57:21;2.42;;;1.80;;
72261;SDS011;60173;52.112;8.648;2022-11-15T10:00:03;4.35;;;1.88;;
72261;SDS011;60173;52.112;8.648;2022-11-15T10:05:43;3.47;;;1.90;;
72261;SDS011;60173;52.112;8.648;2022-11-15T10:10:47;4.28;;;2.10;;
72261;SDS011;60173;52.112;8.648;2022-11-15T10:13:43;3.75;;;2.05;;
72261;SDS011;60173;52.112;8.648;2022-11-15T10:21:52;2.42;;;1.60;;
72261;SDS011;60173;52.112;8.648;2022-11-15T10:24:23;2.20;;;1.50;;
72261;SDS011;60173;52.112;8.648;2022-11-15T10:26:52;4.60;;;1.92;;
72261;SDS011;60173;52.112;8.648;2022-11-15T10:29:19;4.00;;;2.15;;
72261;SDS011;60173;52.112;8.648;2022-11-15T10:31:52;2.03;;;1.63;;
72261;SDS011;60173;52.112;8.648;2022-11-15T10:34:20;2.83;;;1.70;;
72261;SDS011;60173;52.112;8.648;2022-11-15T10:36:54;3.58;;;1.88;;
72261;SDS011;60173;52.112;8.648;2022-11-15T10:41:49;1.92;;;1.48;;
72261;SDS011;60173;52.112;8.648;2022-11-15T10:46:43;1.90;;;1.42;;
72261;SDS011;60173;52.112;8.648;2022-11-15T10:51:47;3.38;;;1.55;;
72261;SDS011;60173;52.112;8.648;2022-11-15T10:54:27;3.20;;;1.38;;
72261;SDS011;60173;52.112;8.648;2022-11-15T10:57:16;3.75;;;1.60;;
72261;SDS011;60173;52.112;8.648;2022-11-15T10:59:45;3.15;;;1.42;;
72261;SDS011;60173;52.112;8.648;2022-11-15T11:07:59;1.50;;;1.30;;
72261;SDS011;60173;52.112;8.648;2022-11-15T11:10:37;2.80;;;1.20;;
72261;SDS011;60173;52.112;8.648;2022-11-15T11:13:25;2.83;;;1.40;;
72261;SDS011;60173;52.112;8.648;2022-11-15T11:15:58;2.28;;;1.38;;
72261;SDS011;60173;52.112;8.648;2022-11-15T11:18:33;5.05;;;1.80;;
72261;SDS011;60173;52.112;8.648;2022-11-15T11:24:32;2.13;;;1.60;;
72261;SDS011;60173;52.112;8.648;2022-11-15T11:29:53;2.78;;;1.63;;
72261;SDS011;60173;52.112;8.648;2022-11-15T11:42:58;4.70;;;1.50;;
72261;SDS011;60173;52.112;8.648;2022-11-15T11:48:13;3.47;;;1.80;;
72261;SDS011;60173;52.112;8.648;2022-11-15T11:50:47;4.18;;;1.73;;
72261;SDS011;60173;52.112;8.648;2022-11-15T11:55:50;4.32;;;1.67;;
72261;SDS011;60173;52.112;8.648;2022-11-15T11:58:21;2.00;;;1.60;;
72261;SDS011;60173;52.112;8.648;2022-11-15T12:00:59;3.53;;;2.00;;
72261;SDS011;60173;52.112;8.648;2022-11-15T12:03:50;3.67;;;1.60;;
72261;SDS011;60173;52.112;8.648;2022-11-15T12:11:50;2.00;;;1.50;;
72261;SDS011;60173;52.112;8.648;2022-11-15T12:14:46;2.58;;;1.83;;
72261;SDS011;60173;52.112;8.648;2022-11-15T12:17:19;3.53;;;1.92;;
72261;SDS011;60173;52.112;8.648;2022-11-15T12:19:49;2.20;;;1.75;;
72261;SDS011;60173;52.112;8.648;2022-11-15T12:22:23;3.22;;;1.95;;
72261;SDS011;60173;52.112;8.648;2022-11-15T12:25:02;2.22;;;1.40;;
72261;SDS011;60173;52.112;8.648;2022-11-15T12:30:22;3.05;;;1.65;;
72261;SDS011;60173;52.112;8.648;2022-11-15T12:32:52;3.85;;;1.73;;
72261;SDS011;60173;52.112;8.648;2022-11-15T12:35:34;2.85;;;1.75;;
72261;SDS011;60173;52.112;8.648;2022-11-15T12:38:04;3.10;;;1.80;;
72261;SDS011;60173;52.112;8.648;2022-11-15T12:40:37;2.78;;;1.85;;
72261;SDS011;60173;52.112;8.648;2022-11-15T12:45:35;3.50;;;1.90;;
72261;SDS011;60173;52.112;8.648;2022-11-15T13:06:46;1.70;;;1.48;;
72261;SDS011;60173;52.112;8.648;2022-11-15T13:12:07;3.85;;;1.67;;
72261;SDS011;60173;52.112;8.648;2022-11-15T13:14:54;2.20;;;1.50;;
72261;SDS011;60173;52.112;8.648;2022-11-15T13:19:59;3.05;;;1.70;;
72261;SDS011;60173;52.112;8.648;2022-11-15T13:22:32;2.08;;;1.58;;
72261;SDS011;60173;52.112;8.648;2022-11-15T13:30:48;3.38;;;1.58;;
72261;SDS011;60173;52.112;8.648;2022-11-15T13:33:19;3.00;;;1.70;;
72261;SDS011;60173;52.112;8.648;2022-11-15T13:35:49;2.92;;;2.08;;
72261;SDS011;60173;52.112;8.648;2022-11-15T13:38:24;5.80;;;2.45;;
72261;SDS011;60173;52.112;8.648;2022-11-15T13:40:51;8.80;;;3.85;;
72261;SDS011;60173;52.112;8.648;2022-11-15T13:48:39;6.22;;;2.72;;
72261;SDS011;60173;52.112;8.648;2022-11-15T13:51:53;3.40;;;2.50;;
72261;SDS011;60173;52.112;8.648;2022-11-15T13:54:14;5.18;;;2.95;;
72261;SDS011;60173;52.112;8.648;2022-11-15T13:56:55;4.63;;;2.45;;
72261;SDS011;60173;52.112;8.648;2022-11-15T13:59:30;5.32;;;2.85;;
72261;SDS011;60173;52.112;8.648;2022-11-15T14:02:02;4.15;;;2.78;;
72261;SDS011;60173;52.112;8.648;2022-11-15T14:04:37;3.75;;;2.70;;
72261;SDS011;60173;52.112;8.648;2022-11-15T14:07:15;5.57;;;2.77;;
72261;SDS011;60173;52.112;8.648;2022-11-15T14:09:44;6.13;;;2.88;;
72261;SDS011;60173;52.112;8.648;2022-11-15T14:12:26;5.95;;;3.35;;
72261;SDS011;60173;52.112;8.648;2022-11-15T14:14:56;5.45;;;3.00;;
72261;SDS011;60173;52.112;8.648;2022-11-15T14:17:34;6.82;;;2.75;;
72261;SDS011;60173;52.112;8.648;2022-11-15T14:20:02;4.25;;;2.15;;
72261;SDS011;60173;52.112;8.648;2022-11-15T14:22:53;6.13;;;2.33;;
72261;SDS011;60173;52.112;8.648;2022-11-15T14:28:08;4.03;;;2.70;;
72261;SDS011;60173;52.112;8.648;2022-11-15T14:35:51;6.35;;;2.90;;
72261;SDS011;60173;52.112;8.648;2022-11-15T14:38:18;4.97;;;2.63;;
72261;SDS011;60173;52.112;8.648;2022-11-15T14:40:44;3.92;;;2.67;;
72261;SDS011;60173;52.112;8.648;2022-11-15T14:43:11;4.47;;;2.83;;
72261;SDS011;60173;52.112;8.648;2022-11-15T14:45:38;5.05;;;2.33;;
72261;SDS011;60173;52.112;8.648;2022-11-15T14:48:05;3.15;;;2.40;;
72261;SDS011;60173;52.112;8.648;2022-11-15T14:50:32;7.45;;;2.10;;
72261;SDS011;60173;52.112;8.648;2022-11-15T14:52:59;6.05;;;2.80;;
72261;SDS011;60173;52.112;8.648;2022-11-15T14:57:52;4.43;;;2.72;;
72261;SDS011;60173;52.112;8.648;2022-11-15T15:00:18;3.78;;;2.28;;
72261;SDS011;60173;52.112;8.648;2022-11-15T15:02:46;4.55;;;2.67;;
72261;SDS011;60173;52.112;8.648;2022-11-15T15:05:15;3.67;;;2.80;;
72261;SDS011;60173;52.112;8.648;2022-11-15T15:07:47;3.78;;;2.83;;
72261;SDS011;60173;52.112;8.648;2022-11-15T15:10:14;4.30;;;2.47;;
72261;SDS011;60173;52.112;8.648;2022-11-15T15:13:02;4.72;;;2.35;;
72261;SDS011;60173;52.112;8.648;2022-11-15T15:15:33;3.88;;;2.08;;
72261;SDS011;60173;52.112;8.648;2022-11-15T15:18:03;3.33;;;2.30;;
72261;SDS011;60173;52.112;8.648;2022-11-15T15:20:34;2.92;;;2.25;;
72261;SDS011;60173;52.112;8.648;2022-11-15T15:23:04;4.28;;;2.80;;
72261;SDS011;60173;52.112;8.648;2022-11-15T15:25:31;3.78;;;2.65;;
72261;SDS011;60173;52.112;8.648;2022-11-15T15:27:59;4.30;;;2.65;;
72261;SDS011;60173;52.112;8.648;2022-11-15T15:30:26;4.15;;;2.67;;
72261;SDS011;60173;52.112;8.648;2022-11-15T15:32:54;4.20;;;2.70;;
72261;SDS011;60173;52.112;8.648;2022-11-15T15:35:21;5.78;;;2.75;;
72261;SDS011;60173;52.112;8.648;2022-11-15T15:37:48;5.88;;;2.58;;
72261;SDS011;60173;52.112;8.648;2022-11-15T15:40:16;4.85;;;2.70;;
72261;SDS011;60173;52.112;8.648;2022-11-15T15:42:45;6.00;;;2.72;;
72261;SDS011;60173;52.112;8.648;2022-11-15T15:45:12;3.30;;;2.53;;
72261;SDS011;60173;52.112;8.648;2022-11-15T15:47:39;3.47;;;2.28;;
72261;SDS011;60173;52.112;8.648;2022-11-15T15:52:49;5.97;;;2.33;;
72261;SDS011;60173;52.112;8.648;2022-11-15T15:55:17;3.33;;;2.30;;
72261;SDS011;60173;52.112;8.648;2022-11-15T15:57:44;5.18;;;2.25;;
72261;SDS011;60173;52.112;8.648;2022-11-15T16:00:10;4.45;;;2.30;;
72261;SDS011;60173;52.112;8.648;2022-11-15T16:02:37;2.55;;;2.05;;
72261;SDS011;60173;52.112;8.648;2022-11-15T16:05:06;4.55;;;2.70;;
72261;SDS011;60173;52.112;8.648;2022-11-15T16:07:33;2.65;;;1.88;;
72261;SDS011;60173;52.112;8.648;2022-11-15T16:10:00;5.10;;;2.22;;
72261;SDS011;60173;52.112;8.648;2022-11-15T16:12:27;6.18;;;2.25;;
72261;SDS011;60173;52.112;8.648;2022-11-15T16:14:55;5.25;;;2.20;;
72261;SDS011;60173;52.112;8.648;2022-11-15T16:17:22;2.95;;;1.92;;
72261;SDS011;60173;52.112;8.648;2022-11-15T16:19:57;3.20;;;2.08;;
72261;SDS011;60173;52.112;8.648;2022-11-15T16:22:26;3.92;;;2.30;;
72261;SDS011;60173;52.112;8.648;2022-11-15T16:24:53;3.70;;;2.25;;
72261;SDS011;60173;52.112;8.648;2022-11-15T16:27:19;4.45;;;2.13;;
72261;SDS011;60173;52.112;8.648;2022-11-15T16:29:47;5.13;;;2.50;;
72261;SDS011;60173;52.112;8.648;2022-11-15T16:32:14;6.45;;;2.58;;
72261;SDS011;60173;52.112;8.648;2022-11-15T16:34:41;5.30;;;2.40;;
72261;SDS011;60173;52.112;8.648;2022-11-15T16:37:23;4.50;;;2.40;;
72261;SDS011;60173;52.112;8.648;2022-11-15T16:39:49;4.45;;;2.65;;
72261;SDS011;60173;52.112;8.648;2022-11-15T16:42:16;7.85;;;3.15;;
72261;SDS011;60173;52.112;8.648;2022-11-15T16:44:43;7.43;;;3.28;;
72261;SDS011;60173;52.112;8.648;2022-11-15T16:47:18;6.32;;;3.13;;
72261;SDS011;60173;52.112;8.648;2022-11-15T16:49:45;6.95;;;2.90;;
72261;SDS011;60173;52.112;8.648;2022-11-15T16:52:12;6.13;;;3.22;;
72261;SDS011;60173;52.112;8.648;2022-11-15T16:54:45;4.78;;;2.97;;
72261;SDS011;60173;52.112;8.648;2022-11-15T16:57:11;5.90;;;3.22;;
72261;SDS011;60173;52.112;8.648;2022-11-15T16:59:37;8.63;;;3.13;;
72261;SDS011;60173;52.112;8.648;2022-11-15T17:02:07;7.30;;;2.90;;
72261;SDS011;60173;52.112;8.648;2022-11-15T17:04:37;3.90;;;2.67;;
72261;SDS011;60173;52.112;8.648;2022-11-15T17:07:03;6.78;;;3.22;;
72261;SDS011;60173;52.112;8.648;2022-11-15T17:09:30;3.70;;;2.60;;
72261;SDS011;60173;52.112;8.648;2022-11-15T17:11:56;4.63;;;3.00;;
72261;SDS011;60173;52.112;8.648;2022-11-15T17:14:22;4.72;;;2.95;;